Date,TemperatureHighF,TemperatureAvgF,TemperatureLowF,DewpointHighF,DewpointAvgF,DewpointLowF,HumidityHigh,HumidityAvg,HumidityLow,PressureMaxIn,PressureMinIn,WindSpeedMaxMPH,WindSpeedAvgMPH,GustSpeedMaxMPH,PrecipitationSumIn
2013-1-1,34,26,19,22,15,8,63,59,53,0.00,40.00,0,-999,0,0.00
2013-1-2,36,26,15,18,12,3,57,52,48,0.00,40.00,0,-999,0,0.00
2013-1-3,34,25,15,16,10,3,57,48,43,0.00,40.00,0,-999,0,0.00
2013-1-4,37,28,22,17,11,6,49,46,44,0.00,40.00,0,-999,0,0.00
2013-1-5,36,25,19,18,12,6,57,52,48,0.00,40.00,0,-999,0,0.00
2013-1-6,40,32,20,19,15,7,56,47,42,0.00,40.00,0,-999,0,0.00
2013-1-7,42,33,23,22,17,10,54,49,44,0.00,40.00,0,-999,0,0.00
2013-1-8,48,39,29,24,19,13,51,44,38,0.00,40.00,0,-999,0,0.00
2013-1-9,47,40,28,23,20,13,51,43,38,0.00,40.00,0,-999,0,0.00
2013-1-10,49,34,20,27,19,11,67,54,39,0.00,40.00,0,-999,0,0.00
2013-1-11,20,13,9,11,4,0,70,63,59,0.00,40.00,0,-999,0,0.00
2013-1-12,19,11,2,8,1,-7,61,60,56,0.00,40.00,0,-999,0,0.00
2013-1-13,22,13,7,10,2,-2,61,59,55,0.00,40.00,0,-999,0,0.00
2013-1-14,21,16,9,8,4,-2,58,55,51,0.00,40.00,0,-999,0,0.00
2013-1-15,32,24,19,19,13,7,61,58,54,0.00,40.00,0,-999,0,0.00
2013-1-16,40,32,25,23,18,14,58,54,49,0.00,40.00,0,-999,0,0.00
2013-1-17,42,32,24,24,17,12,58,52,47,0.00,40.00,0,-999,0,0.00
2013-1-18,52,38,32,28,20,16,51,47,38,0.00,40.00,0,-999,0,0.00
2013-1-19,41,33,26,23,18,14,65,53,47,0.00,40.00,0,-999,0,0.00
2013-1-21,25,21,18,13,11,8,62,59,58,0.00,40.00,0,-999,0,0.00
2013-1-22,45,30,16,26,16,7,66,55,45,0.00,40.00,0,-999,0,0.00
2013-1-23,32,24,18,18,13,10,67,58,50,0.00,40.00,0,-999,0,0.00
2013-1-24,51,35,21,31,20,12,64,53,43,0.00,40.00,0,-999,0,0.00